sensor_id;sensor_type;location;lat;lon;timestamp;temperature;humidity
3701;DHT22;1866;48.374;10.766;2023-03-23T00:01:28;6.20;1.00
3701;DHT22;1866;48.374;10.766;2023-03-23T00:03:58;6.30;1.00
3701;DHT22;1866;48.374;10.766;2023-03-23T00:06:26;6.10;1.00
3701;DHT22;1866;48.374;10.766;2023-03-23T00:08:59;6.50;1.00
3701;DHT22;1866;48.374;10.766;2023-03-23T00:11:29;6.60;1.00
3701;DHT22;1866;48.374;10.766;2023-03-23T00:13:59;6.70;1.00
3701;DHT22;1866;48.374;10.766;2023-03-23T00:16:27;6.90;1.00
3701;DHT22;1866;48.374;10.766;2023-03-23T00:18:56;7.10;1.00
3701;DHT22;1866;48.374;10.766;2023-03-23T00:21:24;6.90;1.00
3701;DHT22;1866;48.374;10.766;2023-03-23T00:24:01;7.20;1.00
3701;DHT22;1866;48.374;10.766;2023-03-23T00:26:30;7.10;1.00
3701;DHT22;1866;48.374;10.766;2023-03-23T00:29:01;7.10;1.00
3701;DHT22;1866;48.374;10.766;2023-03-23T00:31:28;6.80;1.00
3701;DHT22;1866;48.374;10.766;2023-03-23T00:34:01;6.60;1.00
3701;DHT22;1866;48.374;10.766;2023-03-23T00:36:29;6.70;1.00
3701;DHT22;1866;48.374;10.766;2023-03-23T00:38:57;6.90;1.00
3701;DHT22;1866;48.374;10.766;2023-03-23T00:41:25;7.00;1.00
3701;DHT22;1866;48.374;10.766;2023-03-23T00:43:54;7.00;1.00
3701;DHT22;1866;48.374;10.766;2023-03-23T00:46:23;6.90;1.00
3701;DHT22;1866;48.374;10.766;2023-03-23T00:48:50;6.90;1.00
3701;DHT22;1866;48.374;10.766;2023-03-23T00:51:17;6.80;1.00
3701;DHT22;1866;48.374;10.766;2023-03-23T00:53:45;6.80;1.00
3701;DHT22;1866;48.374;10.766;2023-03-23T00:56:12;7.00;1.00
3701;DHT22;1866;48.374;10.766;2023-03-23T00:58:39;7.00;1.00
3701;DHT22;1866;48.374;10.766;2023-03-23T01:01:07;6.80;1.00
3701;DHT22;1866;48.374;10.766;2023-03-23T01:03:36;6.50;1.00
3701;DHT22;1866;48.374;10.766;2023-03-23T01:06:08;6.30;1.00
3701;DHT22;1866;48.374;10.766;2023-03-23T01:08:38;6.20;1.00
3701;DHT22;1866;48.374;10.766;2023-03-23T01:11:12;6.30;1.00
3701;DHT22;1866;48.374;10.766;2023-03-23T01:13:39;6.20;1.00
3701;DHT22;1866;48.374;10.766;2023-03-23T01:16:07;6.10;1.00
3701;DHT22;1866;48.374;10.766;2023-03-23T01:18:34;6.00;1.00
3701;DHT22;1866;48.374;10.766;2023-03-23T01:21:05;5.90;1.00
3701;DHT22;1866;48.374;10.766;2023-03-23T01:23:33;5.90;1.00
3701;DHT22;1866;48.374;10.766;2023-03-23T01:26:03;5.90;1.00
3701;DHT22;1866;48.374;10.766;2023-03-23T01:28:30;6.10;1.00
3701;DHT22;1866;48.374;10.766;2023-03-23T01:31:00;6.40;1.00
3701;DHT22;1866;48.374;10.766;2023-03-23T01:33:28;6.50;1.00
3701;DHT22;1866;48.374;10.766;2023-03-23T01:35:55;6.30;1.00
3701;DHT22;1866;48.374;10.766;2023-03-23T01:38:24;6.40;1.00
3701;DHT22;1866;48.374;10.766;2023-03-23T01:40:50;6.60;1.00
3701;DHT22;1866;48.374;10.766;2023-03-23T01:43:17;6.70;1.00
3701;DHT22;1866;48.374;10.766;2023-03-23T01:45:45;6.70;1.00
3701;DHT22;1866;48.374;10.766;2023-03-23T01:48:17;6.50;1.00
3701;DHT22;1866;48.374;10.766;2023-03-23T01:50:50;6.80;1.00
3701;DHT22;1866;48.374;10.766;2023-03-23T01:53:18;6.60;1.00
3701;DHT22;1866;48.374;10.766;2023-03-23T01:55:48;6.70;1.00
3701;DHT22;1866;48.374;10.766;2023-03-23T01:58:17;6.90;1.00
3701;DHT22;1866;48.374;10.766;2023-03-23T02:00:46;6.80;1.00
3701;DHT22;1866;48.374;10.766;2023-03-23T02:03:14;6.90;1.00
3701;DHT22;1866;48.374;10.766;2023-03-23T02:05:43;6.80;1.00
3701;DHT22;1866;48.374;10.766;2023-03-23T02:08:11;6.60;1.00
3701;DHT22;1866;48.374;10.766;2023-03-23T02:10:39;6.50;1.00
3701;DHT22;1866;48.374;10.766;2023-03-23T02:13:09;6.40;1.00
3701;DHT22;1866;48.374;10.766;2023-03-23T02:15:48;6.30;1.00
3701;DHT22;1866;48.374;10.766;2023-03-23T02:18:31;6.20;1.00
3701;DHT22;1866;48.374;10.766;2023-03-23T02:21:29;6.20;1.00
3701;DHT22;1866;48.374;10.766;2023-03-23T02:24:30;6.20;1.00
3701;DHT22;1866;48.374;10.766;2023-03-23T02:27:05;6.40;1.00
3701;DHT22;1866;48.374;10.766;2023-03-23T02:29:52;6.50;1.00
3701;DHT22;1866;48.374;10.766;2023-03-23T02:32:43;6.60;1.00
3701;DHT22;1866;48.374;10.766;2023-03-23T02:35:18;6.90;1.00
3701;DHT22;1866;48.374;10.766;2023-03-23T02:37:48;7.10;1.00
3701;DHT22;1866;48.374;10.766;2023-03-23T02:40:19;7.00;1.00
3701;DHT22;1866;48.374;10.766;2023-03-23T02:42:49;7.00;1.00
3701;DHT22;1866;48.374;10.766;2023-03-23T02:45:19;7.10;1.00
3701;DHT22;1866;48.374;10.766;2023-03-23T02:47:51;7.00;1.00
3701;DHT22;1866;48.374;10.766;2023-03-23T02:50:22;6.90;1.00
3701;DHT22;1866;48.374;10.766;2023-03-23T02:52:53;6.90;1.00
3701;DHT22;1866;48.374;10.766;2023-03-23T02:55:22;6.80;1.00
3701;DHT22;1866;48.374;10.766;2023-03-23T02:57:51;6.80;1.00
3701;DHT22;1866;48.374;10.766;2023-03-23T03:00:18;6.90;1.00
3701;DHT22;1866;48.374;10.766;2023-03-23T03:02:46;7.10;1.00
3701;DHT22;1866;48.374;10.766;2023-03-23T03:05:25;7.10;1.00
3701;DHT22;1866;48.374;10.766;2023-03-23T03:08:10;7.00;1.00
3701;DHT22;1866;48.374;10.766;2023-03-23T03:10:46;6.90;1.00
3701;DHT22;1866;48.374;10.766;2023-03-23T03:13:24;7.00;1.00
3701;DHT22;1866;48.374;10.766;2023-03-23T03:15:56;7.10;1.00
3701;DHT22;1866;48.374;10.766;2023-03-23T03:18:26;7.20;1.00
3701;DHT22;1866;48.374;10.766;2023-03-23T03:21:01;7.10;1.00
3701;DHT22;1866;48.374;10.766;2023-03-23T03:23:30;7.10;1.00
3701;DHT22;1866;48.374;10.766;2023-03-23T03:25:58;7.00;1.00
3701;DHT22;1866;48.374;10.766;2023-03-23T03:28:26;7.10;1.00
3701;DHT22;1866;48.374;10.766;2023-03-23T03:30:57;7.00;1.00
3701;DHT22;1866;48.374;10.766;2023-03-23T03:33:27;7.10;1.00
3701;DHT22;1866;48.374;10.766;2023-03-23T03:35:59;7.20;1.00
3701;DHT22;1866;48.374;10.766;2023-03-23T03:38:27;7.10;1.00
3701;DHT22;1866;48.374;10.766;2023-03-23T03:40:56;7.30;1.00
3701;DHT22;1866;48.374;10.766;2023-03-23T03:43:23;7.40;1.00
3701;DHT22;1866;48.374;10.766;2023-03-23T03:45:50;7.60;1.00
3701;DHT22;1866;48.374;10.766;2023-03-23T03:48:17;7.70;1.00
3701;DHT22;1866;48.374;10.766;2023-03-23T03:50:44;7.90;1.00
3701;DHT22;1866;48.374;10.766;2023-03-23T03:53:13;8.00;1.00
3701;DHT22;1866;48.374;10.766;2023-03-23T03:55:40;8.50;1.00
3701;DHT22;1866;48.374;10.766;2023-03-23T03:58:10;8.60;1.00
3701;DHT22;1866;48.374;10.766;2023-03-23T04:00:38;8.80;1.00
3701;DHT22;1866;48.374;10.766;2023-03-23T04:03:05;8.60;1.00
3701;DHT22;1866;48.374;10.766;2023-03-23T04:05:33;8.90;1.00
3701;DHT22;1866;48.374;10.766;2023-03-23T04:07:59;9.10;1.00
3701;DHT22;1866;48.374;10.766;2023-03-23T04:10:30;9.10;1.00
3701;DHT22;1866;48.374;10.766;2023-03-23T04:12:57;9.20;1.00
3701;DHT22;1866;48.374;10.766;2023-03-23T04:15:25;9.30;1.00
3701;DHT22;1866;48.374;10.766;2023-03-23T04:17:52;9.80;1.00
3701;DHT22;1866;48.374;10.766;2023-03-23T04:20:19;9.50;1.00
3701;DHT22;1866;48.374;10.766;2023-03-23T04:22:46;9.50;1.00
3701;DHT22;1866;48.374;10.766;2023-03-23T04:25:16;9.30;1.00
3701;DHT22;1866;48.374;10.766;2023-03-23T04:27:44;9.20;1.00
3701;DHT22;1866;48.374;10.766;2023-03-23T04:30:12;9.10;1.00
3701;DHT22;1866;48.374;10.766;2023-03-23T04:32:40;9.00;1.00
3701;DHT22;1866;48.374;10.766;2023-03-23T04:35:09;9.10;1.00
3701;DHT22;1866;48.374;10.766;2023-03-23T04:37:37;9.20;1.00
3701;DHT22;1866;48.374;10.766;2023-03-23T04:40:05;9.30;1.00
3701;DHT22;1866;48.374;10.766;2023-03-23T04:42:37;9.30;1.00
3701;DHT22;1866;48.374;10.766;2023-03-23T04:45:07;9.30;1.00
3701;DHT22;1866;48.374;10.766;2023-03-23T04:47:36;9.40;1.00
3701;DHT22;1866;48.374;10.766;2023-03-23T04:50:08;9.40;1.00
3701;DHT22;1866;48.374;10.766;2023-03-23T04:52:35;9.40;1.00
3701;DHT22;1866;48.374;10.766;2023-03-23T04:55:07;9.40;1.00
3701;DHT22;1866;48.374;10.766;2023-03-23T04:57:35;9.40;1.00
3701;DHT22;1866;48.374;10.766;2023-03-23T05:00:05;9.40;1.00
3701;DHT22;1866;48.374;10.766;2023-03-23T05:02:34;9.40;1.00
3701;DHT22;1866;48.374;10.766;2023-03-23T05:05:01;9.50;1.00
3701;DHT22;1866;48.374;10.766;2023-03-23T05:07:28;9.50;1.00
3701;DHT22;1866;48.374;10.766;2023-03-23T05:09:55;9.50;1.00
3701;DHT22;1866;48.374;10.766;2023-03-23T05:12:22;9.60;1.00
3701;DHT22;1866;48.374;10.766;2023-03-23T05:14:49;9.50;1.00
3701;DHT22;1866;48.374;10.766;2023-03-23T05:17:17;9.60;1.00
3701;DHT22;1866;48.374;10.766;2023-03-23T05:19:44;9.50;1.00
3701;DHT22;1866;48.374;10.766;2023-03-23T05:22:13;9.60;1.00
3701;DHT22;1866;48.374;10.766;2023-03-23T05:24:40;9.80;1.00
3701;DHT22;1866;48.374;10.766;2023-03-23T05:27:08;9.70;1.00
3701;DHT22;1866;48.374;10.766;2023-03-23T05:29:35;9.70;1.00
3701;DHT22;1866;48.374;10.766;2023-03-23T05:32:03;9.90;1.00
3701;DHT22;1866;48.374;10.766;2023-03-23T05:34:32;10.00;1.00
3701;DHT22;1866;48.374;10.766;2023-03-23T05:36:59;10.10;1.00
3701;DHT22;1866;48.374;10.766;2023-03-23T05:39:27;10.20;1.00
3701;DHT22;1866;48.374;10.766;2023-03-23T05:41:55;10.00;1.00
3701;DHT22;1866;48.374;10.766;2023-03-23T05:44:23;9.80;1.00
3701;DHT22;1866;48.374;10.766;2023-03-23T05:46:50;9.80;1.00
3701;DHT22;1866;48.374;10.766;2023-03-23T05:49:17;9.90;1.00
3701;DHT22;1866;48.374;10.766;2023-03-23T05:51:45;10.00;1.00
3701;DHT22;1866;48.374;10.766;2023-03-23T05:54:13;10.00;1.00
3701;DHT22;1866;48.374;10.766;2023-03-23T05:56:40;10.00;1.00
3701;DHT22;1866;48.374;10.766;2023-03-23T05:59:08;10.20;1.00
3701;DHT22;1866;48.374;10.766;2023-03-23T06:01:35;10.20;1.00
3701;DHT22;1866;48.374;10.766;2023-03-23T06:04:02;10.00;1.00
3701;DHT22;1866;48.374;10.766;2023-03-23T06:06:30;10.10;1.00
3701;DHT22;1866;48.374;10.766;2023-03-23T06:08:59;10.10;1.00
3701;DHT22;1866;48.374;10.766;2023-03-23T06:11:26;10.20;1.00
3701;DHT22;1866;48.374;10.766;2023-03-23T06:13:53;10.20;1.00
3701;DHT22;1866;48.374;10.766;2023-03-23T06:16:20;10.40;1.00
3701;DHT22;1866;48.374;10.766;2023-03-23T06:18:47;10.30;1.00
3701;DHT22;1866;48.374;10.766;2023-03-23T06:21:14;10.40;1.00
3701;DHT22;1866;48.374;10.766;2023-03-23T06:23:40;10.50;1.00
3701;DHT22;1866;48.374;10.766;2023-03-23T06:26:12;10.40;1.00
3701;DHT22;1866;48.374;10.766;2023-03-23T06:28:42;10.40;1.00
3701;DHT22;1866;48.374;10.766;2023-03-23T06:31:08;10.50;1.00
3701;DHT22;1866;48.374;10.766;2023-03-23T06:33:36;10.60;1.00
3701;DHT22;1866;48.374;10.766;2023-03-23T06:36:04;10.70;1.00
3701;DHT22;1866;48.374;10.766;2023-03-23T06:38:32;10.70;1.00
3701;DHT22;1866;48.374;10.766;2023-03-23T06:40:58;10.80;1.00
3701;DHT22;1866;48.374;10.766;2023-03-23T06:43:27;10.90;1.00
3701;DHT22;1866;48.374;10.766;2023-03-23T06:45:54;11.00;1.00
3701;DHT22;1866;48.374;10.766;2023-03-23T06:48:20;11.10;1.00
3701;DHT22;1866;48.374;10.766;2023-03-23T06:50:47;11.10;1.00
3701;DHT22;1866;48.374;10.766;2023-03-23T06:53:14;11.30;1.00
3701;DHT22;1866;48.374;10.766;2023-03-23T06:55:42;11.40;1.00
3701;DHT22;1866;48.374;10.766;2023-03-23T06:58:10;11.40;1.00
3701;DHT22;1866;48.374;10.766;2023-03-23T07:00:39;11.60;1.00
3701;DHT22;1866;48.374;10.766;2023-03-23T07:03:06;11.60;1.00
3701;DHT22;1866;48.374;10.766;2023-03-23T07:05:34;11.70;1.00
3701;DHT22;1866;48.374;10.766;2023-03-23T07:08:01;11.70;1.00
3701;DHT22;1866;48.374;10.766;2023-03-23T07:10:29;11.90;1.00
3701;DHT22;1866;48.374;10.766;2023-03-23T07:12:56;11.90;1.00
3701;DHT22;1866;48.374;10.766;2023-03-23T07:15:23;11.90;1.00
3701;DHT22;1866;48.374;10.766;2023-03-23T07:17:51;12.00;1.00
3701;DHT22;1866;48.374;10.766;2023-03-23T07:20:19;12.30;1.00
3701;DHT22;1866;48.374;10.766;2023-03-23T07:22:47;12.40;1.00
3701;DHT22;1866;48.374;10.766;2023-03-23T07:25:14;12.30;1.00
3701;DHT22;1866;48.374;10.766;2023-03-23T07:27:41;12.60;1.00
3701;DHT22;1866;48.374;10.766;2023-03-23T07:30:09;12.80;1.00
3701;DHT22;1866;48.374;10.766;2023-03-23T07:32:36;12.80;1.00
3701;DHT22;1866;48.374;10.766;2023-03-23T07:35:05;12.90;1.00
3701;DHT22;1866;48.374;10.766;2023-03-23T07:37:32;12.90;1.00
3701;DHT22;1866;48.374;10.766;2023-03-23T07:39:59;13.20;1.00
3701;DHT22;1866;48.374;10.766;2023-03-23T07:42:33;13.20;1.00
3701;DHT22;1866;48.374;10.766;2023-03-23T07:45:01;13.20;1.00
3701;DHT22;1866;48.374;10.766;2023-03-23T07:47:28;13.20;1.00
3701;DHT22;1866;48.374;10.766;2023-03-23T07:49:55;13.20;1.00
3701;DHT22;1866;48.374;10.766;2023-03-23T07:52:24;13.20;1.00
3701;DHT22;1866;48.374;10.766;2023-03-23T07:54:51;13.40;1.00
3701;DHT22;1866;48.374;10.766;2023-03-23T07:57:18;13.50;1.00
3701;DHT22;1866;48.374;10.766;2023-03-23T07:59:45;13.70;1.00
3701;DHT22;1866;48.374;10.766;2023-03-23T08:02:12;13.90;1.00
3701;DHT22;1866;48.374;10.766;2023-03-23T08:04:39;14.10;1.00
3701;DHT22;1866;48.374;10.766;2023-03-23T08:07:06;14.20;1.00
3701;DHT22;1866;48.374;10.766;2023-03-23T08:09:34;14.30;1.00
3701;DHT22;1866;48.374;10.766;2023-03-23T08:12:01;14.40;1.00
3701;DHT22;1866;48.374;10.766;2023-03-23T08:14:29;14.50;1.00
3701;DHT22;1866;48.374;10.766;2023-03-23T08:16:56;14.60;1.00
3701;DHT22;1866;48.374;10.766;2023-03-23T08:19:24;14.80;1.00
3701;DHT22;1866;48.374;10.766;2023-03-23T08:21:51;14.90;1.00
3701;DHT22;1866;48.374;10.766;2023-03-23T08:24:19;15.30;1.00
3701;DHT22;1866;48.374;10.766;2023-03-23T08:26:47;15.60;1.00
3701;DHT22;1866;48.374;10.766;2023-03-23T08:29:14;15.70;1.00
3701;DHT22;1866;48.374;10.766;2023-03-23T08:31:42;15.60;1.00
3701;DHT22;1866;48.374;10.766;2023-03-23T08:34:10;15.80;1.00
3701;DHT22;1866;48.374;10.766;2023-03-23T08:36:37;15.80;1.00
3701;DHT22;1866;48.374;10.766;2023-03-23T08:39:04;15.70;1.00
3701;DHT22;1866;48.374;10.766;2023-03-23T08:41:31;15.70;1.00
3701;DHT22;1866;48.374;10.766;2023-03-23T08:44:00;15.70;1.00
3701;DHT22;1866;48.374;10.766;2023-03-23T08:46:27;15.80;1.00
3701;DHT22;1866;48.374;10.766;2023-03-23T08:48:54;15.80;1.00
3701;DHT22;1866;48.374;10.766;2023-03-23T08:51:21;15.80;1.00
3701;DHT22;1866;48.374;10.766;2023-03-23T08:53:48;16.00;1.00
3701;DHT22;1866;48.374;10.766;2023-03-23T08:56:16;15.70;1.00
3701;DHT22;1866;48.374;10.766;2023-03-23T08:58:43;15.50;1.00
3701;DHT22;1866;48.374;10.766;2023-03-23T09:01:11;15.50;1.00
3701;DHT22;1866;48.374;10.766;2023-03-23T09:03:38;15.60;1.00
3701;DHT22;1866;48.374;10.766;2023-03-23T09:06:07;15.60;1.00
3701;DHT22;1866;48.374;10.766;2023-03-23T09:08:34;15.80;1.00
3701;DHT22;1866;48.374;10.766;2023-03-23T09:11:04;15.90;1.00
3701;DHT22;1866;48.374;10.766;2023-03-23T09:13:31;15.90;1.00
3701;DHT22;1866;48.374;10.766;2023-03-23T09:15:58;15.90;1.00
3701;DHT22;1866;48.374;10.766;2023-03-23T09:18:26;15.90;1.00
3701;DHT22;1866;48.374;10.766;2023-03-23T09:20:54;15.90;1.00
3701;DHT22;1866;48.374;10.766;2023-03-23T09:23:21;15.90;1.00
3701;DHT22;1866;48.374;10.766;2023-03-23T09:25:48;15.90;1.00
3701;DHT22;1866;48.374;10.766;2023-03-23T09:28:15;15.90;1.00
3701;DHT22;1866;48.374;10.766;2023-03-23T09:30:41;15.80;1.00
3701;DHT22;1866;48.374;10.766;2023-03-23T09:33:09;15.70;1.00
3701;DHT22;1866;48.374;10.766;2023-03-23T09:35:38;15.80;1.00
3701;DHT22;1866;48.374;10.766;2023-03-23T09:38:07;15.70;1.00
3701;DHT22;1866;48.374;10.766;2023-03-23T09:40:43;15.80;1.00
3701;DHT22;1866;48.374;10.766;2023-03-23T09:43:33;16.00;1.00
3701;DHT22;1866;48.374;10.766;2023-03-23T09:46:26;15.90;1.00
3701;DHT22;1866;48.374;10.766;2023-03-23T09:48:56;15.80;1.00
3701;DHT22;1866;48.374;10.766;2023-03-23T09:51:36;15.70;1.00
3701;DHT22;1866;48.374;10.766;2023-03-23T09:54:11;15.80;1.00
3701;DHT22;1866;48.374;10.766;2023-03-23T09:56:40;15.80;1.00
3701;DHT22;1866;48.374;10.766;2023-03-23T09:59:13;15.80;1.00
3701;DHT22;1866;48.374;10.766;2023-03-23T10:01:44;15.80;1.00
3701;DHT22;1866;48.374;10.766;2023-03-23T10:04:15;15.90;1.00
3701;DHT22;1866;48.374;10.766;2023-03-23T10:06:48;16.00;1.00
3701;DHT22;1866;48.374;10.766;2023-03-23T10:09:19;16.00;1.00
3701;DHT22;1866;48.374;10.766;2023-03-23T10:11:54;16.00;1.00
3701;DHT22;1866;48.374;10.766;2023-03-23T10:14:31;16.20;1.00
3701;DHT22;1866;48.374;10.766;2023-03-23T10:17:07;16.50;1.00
3701;DHT22;1866;48.374;10.766;2023-03-23T10:19:46;16.60;1.00
3701;DHT22;1866;48.374;10.766;2023-03-23T10:22:17;16.60;1.00
3701;DHT22;1866;48.374;10.766;2023-03-23T10:24:50;16.70;1.00
3701;DHT22;1866;48.374;10.766;2023-03-23T10:27:22;16.50;1.00
3701;DHT22;1866;48.374;10.766;2023-03-23T10:29:55;16.60;1.00
3701;DHT22;1866;48.374;10.766;2023-03-23T10:32:38;16.60;1.00
3701;DHT22;1866;48.374;10.766;2023-03-23T10:35:12;16.70;1.00
3701;DHT22;1866;48.374;10.766;2023-03-23T10:37:45;16.60;1.00
3701;DHT22;1866;48.374;10.766;2023-03-23T10:40:18;16.90;1.00
3701;DHT22;1866;48.374;10.766;2023-03-23T10:42:46;16.70;1.00
3701;DHT22;1866;48.374;10.766;2023-03-23T10:45:17;16.80;1.00
3701;DHT22;1866;48.374;10.766;2023-03-23T10:47:49;16.80;1.00
3701;DHT22;1866;48.374;10.766;2023-03-23T10:50:21;17.00;1.00
3701;DHT22;1866;48.374;10.766;2023-03-23T10:52:52;16.90;1.00
3701;DHT22;1866;48.374;10.766;2023-03-23T10:55:22;16.90;1.00
3701;DHT22;1866;48.374;10.766;2023-03-23T10:58:00;16.90;1.00
3701;DHT22;1866;48.374;10.766;2023-03-23T11:00:29;16.70;1.00
3701;DHT22;1866;48.374;10.766;2023-03-23T11:03:02;16.80;1.00
3701;DHT22;1866;48.374;10.766;2023-03-23T11:05:37;16.90;1.00
3701;DHT22;1866;48.374;10.766;2023-03-23T11:08:13;17.30;1.00
3701;DHT22;1866;48.374;10.766;2023-03-23T11:10:46;17.20;1.00
3701;DHT22;1866;48.374;10.766;2023-03-23T11:13:14;17.10;1.00
3701;DHT22;1866;48.374;10.766;2023-03-23T11:15:43;17.00;1.00
3701;DHT22;1866;48.374;10.766;2023-03-23T11:18:12;17.10;1.00
3701;DHT22;1866;48.374;10.766;2023-03-23T11:20:41;17.20;1.00
3701;DHT22;1866;48.374;10.766;2023-03-23T11:23:20;17.20;1.00
3701;DHT22;1866;48.374;10.766;2023-03-23T11:26:00;17.20;1.00
3701;DHT22;1866;48.374;10.766;2023-03-23T11:28:32;17.20;1.00
3701;DHT22;1866;48.374;10.766;2023-03-23T11:31:03;17.20;1.00
3701;DHT22;1866;48.374;10.766;2023-03-23T11:33:35;17.30;1.00
3701;DHT22;1866;48.374;10.766;2023-03-23T11:36:03;17.60;1.00
3701;DHT22;1866;48.374;10.766;2023-03-23T11:38:33;17.60;1.00
3701;DHT22;1866;48.374;10.766;2023-03-23T11:41:01;17.60;1.00
3701;DHT22;1866;48.374;10.766;2023-03-23T11:43:28;17.50;1.00
3701;DHT22;1866;48.374;10.766;2023-03-23T11:46:05;17.30;1.00
3701;DHT22;1866;48.374;10.766;2023-03-23T11:48:42;17.70;1.00
3701;DHT22;1866;48.374;10.766;2023-03-23T11:51:13;17.50;1.00
3701;DHT22;1866;48.374;10.766;2023-03-23T11:53:48;17.70;1.00
3701;DHT22;1866;48.374;10.766;2023-03-23T11:56:23;17.60;1.00
3701;DHT22;1866;48.374;10.766;2023-03-23T11:58:51;17.80;1.00
3701;DHT22;1866;48.374;10.766;2023-03-23T12:01:33;17.90;1.00
3701;DHT22;1866;48.374;10.766;2023-03-23T12:04:30;17.90;1.00
3701;DHT22;1866;48.374;10.766;2023-03-23T12:07:15;17.60;1.00
3701;DHT22;1866;48.374;10.766;2023-03-23T12:09:50;17.40;1.00
3701;DHT22;1866;48.374;10.766;2023-03-23T12:12:28;17.30;1.00
3701;DHT22;1866;48.374;10.766;2023-03-23T12:15:04;17.20;1.00
3701;DHT22;1866;48.374;10.766;2023-03-23T12:17:45;17.30;1.00
3701;DHT22;1866;48.374;10.766;2023-03-23T12:20:25;17.30;1.00
3701;DHT22;1866;48.374;10.766;2023-03-23T12:23:16;17.50;1.00
3701;DHT22;1866;48.374;10.766;2023-03-23T12:26:14;17.20;1.00
3701;DHT22;1866;48.374;10.766;2023-03-23T12:29:10;16.90;1.00
3701;DHT22;1866;48.374;10.766;2023-03-23T12:31:47;17.40;1.00
3701;DHT22;1866;48.374;10.766;2023-03-23T12:34:22;17.40;1.00
3701;DHT22;1866;48.374;10.766;2023-03-23T12:37:00;17.60;1.00
3701;DHT22;1866;48.374;10.766;2023-03-23T12:39:56;17.80;1.00
3701;DHT22;1866;48.374;10.766;2023-03-23T12:42:34;17.40;1.00
3701;DHT22;1866;48.374;10.766;2023-03-23T12:45:17;17.30;1.00
3701;DHT22;1866;48.374;10.766;2023-03-23T12:47:50;17.40;1.00
3701;DHT22;1866;48.374;10.766;2023-03-23T12:50:24;17.50;1.00
3701;DHT22;1866;48.374;10.766;2023-03-23T12:52:58;17.70;1.00
3701;DHT22;1866;48.374;10.766;2023-03-23T12:55:32;17.50;1.00
3701;DHT22;1866;48.374;10.766;2023-03-23T12:58:05;17.80;1.00
3701;DHT22;1866;48.374;10.766;2023-03-23T13:00:46;17.30;1.00
3701;DHT22;1866;48.374;10.766;2023-03-23T13:03:19;17.30;1.00
3701;DHT22;1866;48.374;10.766;2023-03-23T13:05:52;17.30;1.00
3701;DHT22;1866;48.374;10.766;2023-03-23T13:08:25;17.20;1.00
3701;DHT22;1866;48.374;10.766;2023-03-23T13:10:56;17.40;1.00
3701;DHT22;1866;48.374;10.766;2023-03-23T13:13:39;17.30;1.00
3701;DHT22;1866;48.374;10.766;2023-03-23T13:16:12;17.20;1.00
3701;DHT22;1866;48.374;10.766;2023-03-23T13:18:48;17.60;1.00
3701;DHT22;1866;48.374;10.766;2023-03-23T13:21:20;17.50;1.00
3701;DHT22;1866;48.374;10.766;2023-03-23T13:23:53;17.60;1.00
3701;DHT22;1866;48.374;10.766;2023-03-23T13:26:22;17.90;1.00
3701;DHT22;1866;48.374;10.766;2023-03-23T13:28:55;17.90;1.00
3701;DHT22;1866;48.374;10.766;2023-03-23T13:31:26;18.00;1.00
3701;DHT22;1866;48.374;10.766;2023-03-23T13:34:01;17.90;1.00
3701;DHT22;1866;48.374;10.766;2023-03-23T13:36:31;18.10;1.00
3701;DHT22;1866;48.374;10.766;2023-03-23T13:39:00;18.30;1.00
3701;DHT22;1866;48.374;10.766;2023-03-23T13:41:27;18.30;1.00
3701;DHT22;1866;48.374;10.766;2023-03-23T13:44:16;17.90;1.00
3701;DHT22;1866;48.374;10.766;2023-03-23T13:46:55;17.80;1.00
3701;DHT22;1866;48.374;10.766;2023-03-23T13:49:23;17.80;1.00
3701;DHT22;1866;48.374;10.766;2023-03-23T13:52:14;17.70;1.00
3701;DHT22;1866;48.374;10.766;2023-03-23T13:54:43;17.60;1.00
3701;DHT22;1866;48.374;10.766;2023-03-23T13:57:36;17.70;1.00
3701;DHT22;1866;48.374;10.766;2023-03-23T14:00:44;17.70;1.00
3701;DHT22;1866;48.374;10.766;2023-03-23T14:03:15;17.60;1.00
3701;DHT22;1866;48.374;10.766;2023-03-23T14:05:44;17.60;1.00
3701;DHT22;1866;48.374;10.766;2023-03-23T14:08:19;17.60;1.00
3701;DHT22;1866;48.374;10.766;2023-03-23T14:10:51;17.50;1.00
3701;DHT22;1866;48.374;10.766;2023-03-23T14:13:21;17.50;1.00
3701;DHT22;1866;48.374;10.766;2023-03-23T14:16:01;17.20;1.00
3701;DHT22;1866;48.374;10.766;2023-03-23T14:18:36;17.20;1.00
3701;DHT22;1866;48.374;10.766;2023-03-23T14:21:04;17.10;1.00
3701;DHT22;1866;48.374;10.766;2023-03-23T14:23:33;17.00;1.00
3701;DHT22;1866;48.374;10.766;2023-03-23T14:26:02;17.10;1.00
3701;DHT22;1866;48.374;10.766;2023-03-23T14:28:37;17.10;1.00
3701;DHT22;1866;48.374;10.766;2023-03-23T14:31:14;17.10;1.00
3701;DHT22;1866;48.374;10.766;2023-03-23T14:33:42;17.10;1.00
3701;DHT22;1866;48.374;10.766;2023-03-23T14:36:09;17.10;1.00
3701;DHT22;1866;48.374;10.766;2023-03-23T14:38:37;17.10;1.00
3701;DHT22;1866;48.374;10.766;2023-03-23T14:41:05;17.00;1.00
3701;DHT22;1866;48.374;10.766;2023-03-23T14:43:34;17.10;1.00
3701;DHT22;1866;48.374;10.766;2023-03-23T14:46:07;17.10;1.00
3701;DHT22;1866;48.374;10.766;2023-03-23T14:48:35;17.00;1.00
3701;DHT22;1866;48.374;10.766;2023-03-23T14:51:04;17.00;1.00
3701;DHT22;1866;48.374;10.766;2023-03-23T14:53:35;17.00;1.00
3701;DHT22;1866;48.374;10.766;2023-03-23T14:56:09;16.90;1.00
3701;DHT22;1866;48.374;10.766;2023-03-23T14:58:37;16.70;1.00
3701;DHT22;1866;48.374;10.766;2023-03-23T15:01:08;16.70;1.00
3701;DHT22;1866;48.374;10.766;2023-03-23T15:03:44;16.60;1.00
3701;DHT22;1866;48.374;10.766;2023-03-23T15:06:15;16.60;1.00
3701;DHT22;1866;48.374;10.766;2023-03-23T15:08:44;16.50;1.00
3701;DHT22;1866;48.374;10.766;2023-03-23T15:11:23;16.50;1.00
3701;DHT22;1866;48.374;10.766;2023-03-23T15:13:55;16.60;1.00
3701;DHT22;1866;48.374;10.766;2023-03-23T15:16:26;16.60;1.00
3701;DHT22;1866;48.374;10.766;2023-03-23T15:18:55;16.40;1.00
3701;DHT22;1866;48.374;10.766;2023-03-23T15:21:26;16.40;1.00
3701;DHT22;1866;48.374;10.766;2023-03-23T15:23:54;16.30;1.00
3701;DHT22;1866;48.374;10.766;2023-03-23T15:26:41;16.20;1.00
3701;DHT22;1866;48.374;10.766;2023-03-23T15:29:15;16.10;1.00
3701;DHT22;1866;48.374;10.766;2023-03-23T15:31:45;16.10;1.00
3701;DHT22;1866;48.374;10.766;2023-03-23T15:34:27;16.10;1.00
3701;DHT22;1866;48.374;10.766;2023-03-23T15:36:57;16.00;1.00
3701;DHT22;1866;48.374;10.766;2023-03-23T15:39:25;16.00;1.00
3701;DHT22;1866;48.374;10.766;2023-03-23T15:41:53;15.90;1.00
3701;DHT22;1866;48.374;10.766;2023-03-23T15:44:29;15.90;1.00
3701;DHT22;1866;48.374;10.766;2023-03-23T15:47:14;15.80;1.00
3701;DHT22;1866;48.374;10.766;2023-03-23T15:49:42;15.80;1.00
3701;DHT22;1866;48.374;10.766;2023-03-23T15:52:10;15.80;1.00
3701;DHT22;1866;48.374;10.766;2023-03-23T15:54:38;15.80;1.00
3701;DHT22;1866;48.374;10.766;2023-03-23T15:57:12;15.70;1.00
3701;DHT22;1866;48.374;10.766;2023-03-23T15:59:39;15.70;1.00
3701;DHT22;1866;48.374;10.766;2023-03-23T16:02:13;15.70;1.00
3701;DHT22;1866;48.374;10.766;2023-03-23T16:04:41;15.70;1.00
3701;DHT22;1866;48.374;10.766;2023-03-23T16:07:08;15.70;1.00
3701;DHT22;1866;48.374;10.766;2023-03-23T16:09:38;15.70;1.00
3701;DHT22;1866;48.374;10.766;2023-03-23T16:12:09;15.60;1.00
3701;DHT22;1866;48.374;10.766;2023-03-23T16:14:37;15.50;1.00
3701;DHT22;1866;48.374;10.766;2023-03-23T16:17:05;15.50;1.00
3701;DHT22;1866;48.374;10.766;2023-03-23T16:19:33;15.50;1.00
3701;DHT22;1866;48.374;10.766;2023-03-23T16:22:00;15.50;1.00
3701;DHT22;1866;48.374;10.766;2023-03-23T16:24:27;15.40;1.00
3701;DHT22;1866;48.374;10.766;2023-03-23T16:26:54;15.30;1.00
3701;DHT22;1866;48.374;10.766;2023-03-23T16:29:21;15.40;1.00
3701;DHT22;1866;48.374;10.766;2023-03-23T16:31:48;15.30;1.00